Sand Creek, Michigan
Current Conditions -  °F | °C
As of 3:53 AM on Friday 31 Oct 2014 (Local Time) from KADG Reporting Station
Overcast Overcast  
Wind Chill: 40°   Ceiling: 8000
Heat Index: 43°   Visibility: 10mi
Dew Point: 36°   Wind: 5mph
Humidity: 76%   Direction: 250°WSW
Pressure: 29.97"   Gusts: NA
Location:  41.83°N, 84.1°W
Report Text: KADG 310753Z AUTO 25004KT 10SM FEW038 FEW060 OVC080 06/02 A2997 RMK AO2 SLP154 T00610022
Loading
Personal Weather Stations






























Interactive Weather Map New forecast layout! Learn more

10-Day Weather Forecast

Advertisements
Track Severe Weather on mobile